الصفحة الرئيسية
METAR-TAF:

METAR-TAF

مطار :

مطار كونمينغ جانغشوي الدولي

كونمينغ, جمهورية الصين الشعبية

دائرة عرض: 25-01N, خط طول: 102-41E, ارتفاع: 1892 متر

مراقبة الطقس الحالي

تاريخ ووقت الإصدار 31 دقيقة قبل الساعة 00:00UTC
ريح 6 عقدة من الجنوب/الجنوب الغربي
درجة الحرارة 12°درجة مئوية
الرطوبة 94%
ضغط 1026 hPa
الرؤية: 5000 متر
غيوم قليلة على ارتفاع 1000 قدم
غشاء

METAR: ZPPP 210000Z 21003MPS 5000 BR FEW010 12/11 Q1026 NOSIG

زمن: 08:31 (00:31 UTC)

توقعات

تاريخ ووقت الإصدار 5ساعات و 23 دقيقة قبل الساعة 19:08UTC
التوقعات صالحة من21 الساعة 00 UTC إلى 21 الساعة 24 UTC
ريح 12 عقدة من الجنوب الغربي
الرؤية 10 كم أو أكثر
غيوم متفرقة على ارتفاع 2600 قدم

TAF: ZPPP 201908Z 2100/2124 22006MPS 9999 SCT026 TX22/2108Z TN12/2123Z

أرصاد الطقس والتوقعات من أكثر من 4000 مطار (تقارير الطقس للمطار METAR والتنبؤ بالطقس بالمطارTAF).

المحطات المتاحة هي النقط الصفراء والحمراء على الخريطة.

حرك المؤشر فوق النقطة لمعرفة اسم المحطة.

ثم انقر لمعرفة أرصاد وتوقعات الطقس.

لتغيير الخارطة: اضغط على الأزرار الخضراء مع رمز الصليب الأسود للتكبير. على الزر الأخضر مع شرطة للتصغير، أو على الأسهم الخضراء للخرائط المجاورة.


METAR-TAF: